createdAt,value
2018-07-29T00:25:04.051Z,16.34
2018-07-29T00:30:04.052Z,16.33
2018-07-29T00:35:04.051Z,41.01
2018-07-29T12:40:03.461Z,29.21
2018-07-29T12:45:03.454Z,29.23
2018-07-29T12:50:03.456Z,30.76
2018-07-29T12:55:03.457Z,31.6
2018-07-29T13:00:03.464Z,32.04
2018-07-29T13:05:03.460Z,31.69
2018-07-29T13:10:03.462Z,31.65
2018-07-29T13:15:03.484Z,34.06
2018-07-29T13:20:03.539Z,37.03
2018-07-29T13:25:03.468Z,37.21
2018-07-29T13:30:03.492Z,37.21
2018-07-29T13:35:03.475Z,36.69
2018-07-29T13:40:03.474Z,35.39
2018-07-29T13:45:03.497Z,34.17
2018-07-29T13:50:03.481Z,32.9
2018-07-29T13:55:03.486Z,32.33
2018-07-29T14:00:03.505Z,31.88
2018-07-29T14:05:03.491Z,31.74
2018-07-29T14:10:03.488Z,32.02
2018-07-29T14:15:03.522Z,31.65
2018-07-29T14:20:03.497Z,31.12
2018-07-29T14:25:03.501Z,30.94
2018-07-29T14:30:03.507Z,32.83
2018-07-29T14:35:03.503Z,36.37
2018-07-29T14:40:03.508Z,36.8
2018-07-29T14:45:03.519Z,38.56
2018-07-29T14:50:03.517Z,40.02
2018-07-29T14:55:03.516Z,40.5
2018-07-29T15:00:03.544Z,39.23
2018-07-29T15:05:03.519Z,39.06
2018-07-29T15:10:03.522Z,40.33
2018-07-29T15:15:03.530Z,40.61
2018-07-29T15:20:03.534Z,40.01
2018-07-29T15:25:03.534Z,40.58
2018-07-29T15:30:03.535Z,42.19
2018-07-29T15:35:03.543Z,42.31
2018-07-29T15:40:03.534Z,41.6
2018-07-29T15:45:03.543Z,40.99
2018-07-29T15:50:03.543Z,41.73
2018-07-29T15:55:03.553Z,40.74
2018-07-29T16:00:03.547Z,38.04
2018-07-29T16:05:03.557Z,35.72
2018-07-29T16:10:03.575Z,34.27
2018-07-29T16:15:03.555Z,33.57
2018-07-29T16:20:03.563Z,33.32
2018-07-29T16:25:03.571Z,33
2018-07-29T16:30:03.568Z,32.59
2018-07-29T16:35:03.564Z,32.53
2018-07-29T16:40:03.581Z,32.41
2018-07-29T16:45:03.577Z,32.49
2018-07-29T16:50:03.617Z,32.4
2018-07-29T16:55:03.594Z,31.64
2018-07-29T17:00:03.588Z,31.24
2018-07-29T17:05:03.591Z,30.86
2018-07-29T17:10:03.696Z,30.37
2018-07-29T17:15:03.592Z,30.06
2018-07-29T17:20:03.614Z,29.75
2018-07-29T17:25:03.602Z,29.64
2018-07-29T17:30:03.613Z,29.6
2018-07-29T17:35:03.601Z,29.39
2018-07-29T17:40:03.623Z,29.08
2018-07-29T17:45:03.608Z,28.75
2018-07-29T17:50:03.607Z,28.47
2018-07-29T17:55:03.618Z,28.21
2018-07-29T18:00:03.625Z,27.93
2018-07-29T18:05:03.653Z,27.3
2018-07-29T18:10:03.625Z,27.05
2018-07-29T18:15:03.747Z,26.94
2018-07-29T18:20:03.634Z,26.68
2018-07-29T18:25:03.641Z,26.1
2018-07-29T18:30:03.651Z,25.63
2018-07-29T18:35:03.644Z,25.32
2018-07-29T18:40:03.635Z,24.92
2018-07-29T18:45:03.650Z,24.68
2018-07-29T18:50:03.657Z,24.48
2018-07-29T18:55:03.642Z,24.41
2018-07-29T19:00:03.653Z,24.13
2018-07-29T19:05:03.646Z,23.92
2018-07-29T19:10:03.653Z,23.73
2018-07-29T19:15:03.663Z,23.54
2018-07-29T19:20:03.661Z,23.31
2018-07-29T19:25:03.660Z,23.11
2018-07-29T19:30:03.670Z,22.95
2018-07-29T19:35:03.665Z,22.86
2018-07-29T19:40:03.669Z,22.78
2018-07-29T19:45:03.714Z,22.65
2018-07-29T19:50:03.677Z,22.53
2018-07-29T19:55:03.677Z,22.46
2018-07-29T20:00:03.693Z,22.33
2018-07-29T20:05:03.680Z,22.21
2018-07-29T20:10:03.685Z,22.06
2018-07-29T20:15:03.693Z,21.95
2018-07-29T20:20:03.689Z,21.9
2018-07-29T20:25:03.694Z,21.8
2018-07-29T20:30:03.708Z,21.61
2018-07-29T20:35:03.698Z,21.44
2018-07-29T20:40:03.703Z,21.2
2018-07-29T20:45:03.714Z,20.93
2018-07-29T20:50:03.709Z,20.66
2018-07-29T20:55:03.709Z,20.47
2018-07-29T21:00:03.724Z,20.27
2018-07-29T21:05:03.718Z,20.07
2018-07-29T21:10:03.720Z,19.88
2018-07-29T21:15:03.730Z,19.73
2018-07-29T21:20:03.722Z,19.68
2018-07-29T21:25:03.728Z,19.53
2018-07-29T21:30:03.745Z,19.45
2018-07-29T21:35:03.731Z,19.29
2018-07-29T21:40:03.736Z,19.14
2018-07-29T21:45:03.754Z,19
2018-07-29T21:50:03.738Z,18.88
2018-07-29T21:55:03.739Z,18.78
2018-07-29T22:00:03.751Z,18.69
2018-07-29T22:05:03.746Z,18.63
2018-07-29T22:10:03.749Z,18.56
2018-07-29T22:15:03.757Z,18.47
2018-07-29T22:20:03.759Z,18.5
2018-07-29T22:25:03.759Z,18.58
2018-07-29T22:30:03.777Z,18.76
2018-07-29T22:35:03.762Z,18.93
2018-07-29T22:40:03.763Z,19.09
2018-07-29T22:45:03.772Z,19.23
2018-07-29T22:50:03.772Z,19.24
2018-07-29T22:55:03.773Z,19.25
2018-07-29T23:00:03.783Z,19.25
2018-07-29T23:05:03.781Z,19.2
2018-07-29T23:10:03.786Z,19.11
2018-07-29T23:15:03.788Z,19.07
2018-07-29T23:20:03.785Z,19
2018-07-29T23:25:03.791Z,18.88
2018-07-29T23:30:03.801Z,18.7
2018-07-29T23:35:03.796Z,18.56
2018-07-29T23:40:03.795Z,18.43
2018-07-29T23:45:03.801Z,18.39
2018-07-29T23:50:03.814Z,18.44
2018-07-29T23:55:03.815Z,18.44
